createdAt,value
2023-04-22T00:04:58.211Z,4.87
2023-04-22T00:08:59.743Z,4.57
2023-04-22T00:13:00.996Z,5.40
2023-04-22T00:17:02.444Z,4.90
2023-04-22T00:21:04.322Z,5.07
2023-04-22T00:25:06.286Z,5.13
2023-04-22T00:29:07.454Z,5.27
2023-04-22T00:33:09.083Z,4.27
2023-04-22T00:37:10.271Z,4.53
2023-04-22T00:41:11.822Z,5.77
2023-04-22T00:45:17.290Z,4.87
2023-04-22T00:49:19.653Z,5.57
2023-04-22T00:53:20.736Z,5.07
2023-04-22T00:57:22.087Z,4.87
2023-04-22T01:01:24.427Z,4.20
2023-04-22T01:05:26.412Z,4.63
2023-04-22T01:09:28.151Z,4.57
2023-04-22T01:13:29.914Z,4.20
2023-04-22T01:17:32.902Z,4.40
2023-04-22T01:21:37.472Z,5.00
2023-04-22T01:25:38.728Z,4.90
2023-04-22T01:29:40.198Z,4.30
2023-04-22T01:33:43.739Z,4.60
2023-04-22T01:37:44.997Z,4.40
2023-04-22T01:41:46.702Z,5.07
2023-04-22T01:45:47.929Z,5.03
2023-04-22T01:49:49.040Z,4.40
2023-04-22T01:53:50.454Z,6.20
2023-04-22T01:57:51.716Z,5.93
2023-04-22T02:01:52.932Z,5.90
2023-04-22T02:05:54.149Z,5.17
2023-04-22T02:09:55.309Z,5.90
2023-04-22T02:13:56.588Z,5.40
2023-04-22T02:17:57.760Z,5.83
2023-04-22T02:21:59.299Z,5.10
2023-04-22T02:26:00.846Z,5.27
2023-04-22T02:30:03.322Z,4.50
2023-04-22T02:34:04.657Z,4.33
2023-04-22T02:38:05.858Z,3.70
2023-04-22T02:42:07.109Z,4.17
2023-04-22T02:46:10.181Z,4.40
2023-04-22T02:50:11.842Z,4.63
2023-04-22T02:54:13.014Z,4.23
2023-04-22T02:58:14.189Z,4.53
2023-04-22T03:02:15.426Z,3.87
2023-04-22T03:06:17.317Z,4.10
2023-04-22T03:10:18.490Z,4.43
2023-04-22T03:14:20.069Z,4.60
2023-04-22T03:18:21.236Z,4.90
2023-04-22T03:22:22.388Z,4.63
2023-04-22T03:26:23.571Z,4.87
2023-04-22T03:30:24.759Z,4.37
2023-04-22T03:34:26.136Z,5.20
2023-04-22T03:38:27.305Z,5.00
2023-04-22T03:42:28.480Z,4.60
2023-04-22T03:46:29.688Z,4.80
2023-04-22T03:50:31.137Z,4.60
2023-04-22T03:54:32.295Z,5.20
2023-04-22T03:58:33.748Z,3.70
2023-04-22T04:02:35.021Z,4.10
2023-04-22T04:06:37.958Z,4.53
2023-04-22T04:10:39.138Z,4.27
2023-04-22T04:14:40.411Z,5.17
2023-04-22T04:18:41.575Z,4.60
2023-04-22T04:22:42.866Z,4.47
2023-04-22T04:26:44.032Z,4.10
2023-04-22T04:30:45.193Z,4.53
2023-04-22T04:34:46.545Z,5.00
2023-04-22T04:38:48.150Z,4.20
2023-04-22T04:42:51.563Z,4.10
2023-04-22T04:46:54.074Z,3.40
2023-04-22T04:50:56.087Z,3.80
2023-04-22T04:54:57.261Z,3.83
2023-04-22T04:58:59.192Z,3.90
2023-04-22T05:03:00.376Z,3.80
2023-04-22T05:07:01.734Z,4.93
2023-04-22T05:11:02.899Z,4.47
2023-04-22T05:15:05.021Z,4.37
2023-04-22T05:19:06.187Z,3.83
2023-04-22T05:23:07.362Z,3.90
2023-04-22T05:27:08.639Z,4.37
2023-04-22T05:31:09.775Z,3.10
2023-04-22T05:35:10.951Z,3.50
2023-04-22T05:39:12.417Z,3.60
2023-04-22T05:43:13.754Z,4.30
2023-04-22T05:47:14.907Z,3.27
2023-04-22T05:51:16.281Z,3.50
2023-04-22T05:55:17.426Z,3.83
2023-04-22T05:59:19.698Z,4.20
2023-04-22T06:03:21.742Z,4.17
2023-04-22T06:07:22.966Z,4.30
2023-04-22T06:11:24.147Z,5.27
2023-04-22T06:15:25.842Z,4.57
2023-04-22T06:19:26.997Z,4.93
2023-04-22T06:23:28.149Z,5.70
2023-04-22T06:27:29.289Z,4.40
2023-04-22T06:31:31.813Z,4.47
2023-04-22T06:35:33.031Z,4.63
2023-04-22T06:39:34.174Z,3.97
2023-04-22T06:43:35.471Z,4.30
2023-04-22T06:47:36.694Z,4.33
2023-04-22T06:51:37.984Z,3.63
2023-04-22T06:55:39.451Z,3.97
2023-04-22T06:59:41.066Z,3.50
2023-04-22T07:03:43.060Z,4.00
2023-04-22T07:07:45.037Z,3.83
2023-04-22T07:11:46.192Z,3.40
2023-04-22T07:15:47.465Z,3.60
2023-04-22T07:19:48.727Z,11.47
2023-04-22T07:23:51.164Z,4.87
2023-04-22T07:27:52.331Z,4.03
2023-04-22T07:31:53.532Z,5.27
2023-04-22T07:35:54.763Z,5.90
2023-04-22T07:39:55.928Z,5.50
2023-04-22T07:43:57.099Z,6.20
2023-04-22T07:47:58.681Z,7.00
2023-04-22T07:51:59.822Z,7.03
2023-04-22T07:56:04.303Z,6.70
2023-04-22T08:00:06.888Z,5.30
2023-04-22T08:04:08.364Z,6.90
2023-04-22T08:08:09.758Z,4.73
2023-04-22T08:12:10.997Z,5.40
2023-04-22T08:16:12.301Z,5.60
2023-04-22T08:20:14.755Z,5.10
2023-04-22T08:24:15.882Z,3.97
2023-04-22T08:28:17.335Z,3.83
2023-04-22T08:32:19.214Z,3.60
2023-04-22T08:36:22.496Z,4.50
2023-04-22T08:40:23.641Z,4.10
2023-04-22T08:44:25.483Z,4.83
2023-04-22T08:48:26.718Z,7.33
2023-04-22T08:52:30.124Z,3.43
2023-04-22T08:56:31.793Z,3.37
2023-04-22T09:00:33.857Z,3.50
2023-04-22T09:04:35.796Z,4.40
2023-04-22T09:08:37.984Z,3.40
2023-04-22T09:12:40.757Z,4.13
2023-04-22T09:16:47.536Z,3.60
2023-04-22T09:20:50.796Z,3.43
2023-04-22T09:24:51.977Z,3.30
2023-04-22T09:29:00.186Z,4.20
2023-04-22T09:33:03.790Z,3.70
2023-04-22T09:37:05.406Z,3.97
2023-04-22T09:41:11.633Z,3.73
2023-04-22T09:45:12.836Z,2.97
2023-04-22T09:49:16.114Z,3.53
2023-04-22T09:53:19.711Z,3.73
2023-04-22T09:57:21.437Z,3.80
2023-04-22T10:01:22.640Z,3.37
2023-04-22T10:05:24.773Z,4.03
2023-04-22T10:09:25.940Z,4.00
2023-04-22T10:13:27.143Z,4.13
2023-04-22T10:17:32.072Z,3.70
2023-04-22T10:21:34.180Z,3.37
2023-04-22T10:25:35.449Z,2.97
2023-04-22T10:29:40.158Z,3.23
2023-04-22T10:33:41.842Z,4.00
2023-04-22T10:37:45.539Z,3.03
2023-04-22T10:41:52.951Z,10.80
2023-04-22T10:45:54.115Z,2.93
2023-04-22T10:50:17.502Z,3.00
2023-04-22T10:54:33.500Z,3.17
2023-04-22T10:58:34.679Z,2.60
2023-04-22T11:02:39.302Z,2.93
2023-04-22T11:06:40.590Z,2.63
2023-04-22T11:10:45.665Z,2.53
2023-04-22T11:14:49.445Z,2.27
2023-04-22T11:18:50.809Z,2.33
2023-04-22T11:22:54.898Z,2.80
2023-04-22T11:26:58.826Z,3.03
2023-04-22T11:31:06.079Z,2.57
2023-04-22T11:35:09.826Z,2.53
2023-04-22T11:39:12.880Z,3.20
2023-04-22T11:43:14.199Z,2.90
2023-04-22T11:47:15.328Z,3.03
2023-04-22T11:51:16.488Z,3.20
2023-04-22T11:55:21.159Z,2.57
2023-04-22T11:59:25.648Z,3.20
2023-04-22T12:03:28.805Z,2.27
2023-04-22T12:07:32.479Z,4.00
2023-04-22T12:11:33.750Z,3.03
2023-04-22T12:15:42.639Z,2.47
2023-04-22T12:19:48.235Z,2.67
2023-04-22T12:23:55.366Z,2.50
2023-04-22T12:27:56.940Z,2.90
2023-04-22T12:31:58.614Z,2.90
2023-04-22T12:35:59.896Z,3.00
2023-04-22T12:40:01.118Z,2.77
2023-04-22T12:44:02.266Z,2.97
2023-04-22T12:48:03.718Z,3.30
2023-04-22T12:52:04.888Z,3.20
2023-04-22T12:56:06.038Z,2.80
2023-04-22T13:00:10.526Z,2.57
2023-04-22T13:04:11.772Z,2.80
2023-04-22T13:08:13.110Z,3.10
2023-04-22T13:12:14.260Z,2.87
2023-04-22T13:16:15.995Z,2.80
2023-04-22T13:20:17.208Z,2.40
2023-04-22T13:24:18.386Z,2.87
2023-04-22T13:28:19.638Z,3.00
2023-04-22T13:32:20.760Z,2.37
2023-04-22T13:36:21.876Z,2.70
2023-04-22T13:40:23.329Z,2.70
2023-04-22T13:44:24.504Z,3.23
2023-04-22T13:48:26.890Z,3.57
2023-04-22T13:52:28.544Z,2.93
2023-04-22T13:56:29.935Z,3.40
2023-04-22T14:00:32.493Z,3.07
2023-04-22T14:04:33.712Z,3.23
2023-04-22T14:08:35.720Z,2.67
2023-04-22T14:12:37.482Z,3.03
2023-04-22T14:16:38.702Z,3.13
2023-04-22T14:20:40.623Z,3.00
2023-04-22T14:24:41.789Z,3.67
2023-04-22T14:28:42.930Z,3.27
2023-04-22T14:32:44.174Z,3.53
2023-04-22T14:36:45.559Z,3.20
2023-04-22T14:40:47.571Z,2.90
2023-04-22T14:44:48.745Z,2.47
2023-04-22T14:48:49.879Z,2.67
2023-04-22T14:52:51.653Z,2.43
2023-04-22T14:56:54.730Z,2.53
2023-04-22T15:00:55.890Z,2.50
2023-04-22T15:04:57.093Z,2.77
2023-04-22T15:08:58.277Z,2.13
2023-04-22T15:12:59.749Z,2.50
2023-04-22T15:17:01.987Z,2.47
2023-04-22T15:21:05.122Z,2.80
2023-04-22T15:25:09.570Z,3.17
2023-04-22T15:29:10.817Z,2.47
2023-04-22T15:33:12.060Z,2.30
2023-04-22T15:37:15.227Z,2.60
2023-04-22T15:41:16.396Z,2.80
2023-04-22T15:45:17.709Z,2.57
2023-04-22T15:49:19.169Z,3.00
2023-04-22T15:53:20.323Z,2.30
2023-04-22T15:57:21.709Z,3.73
2023-04-22T16:01:23.024Z,2.97
2023-04-22T16:05:24.156Z,2.50
2023-04-22T16:09:25.416Z,2.40
2023-04-22T16:13:26.586Z,2.60
2023-04-22T16:17:28.171Z,2.80
2023-04-22T16:21:30.183Z,2.80
2023-04-22T16:25:31.378Z,2.67
2023-04-22T16:29:32.528Z,2.73
2023-04-22T16:33:33.900Z,2.57
2023-04-22T16:37:36.109Z,2.40
2023-04-22T16:41:37.253Z,2.50
2023-04-22T16:45:38.438Z,2.70
2023-04-22T16:49:39.872Z,2.50
2023-04-22T16:53:41.542Z,4.23
2023-04-22T16:57:44.631Z,7.27
2023-04-22T17:01:46.083Z,7.57
2023-04-22T17:05:47.270Z,6.77
2023-04-22T17:09:48.438Z,2.97
2023-04-22T17:13:49.600Z,3.10
2023-04-22T17:17:50.894Z,3.57
2023-04-22T17:21:52.157Z,2.73
2023-04-22T17:25:53.308Z,3.13
2023-04-22T17:29:54.477Z,3.00
2023-04-22T17:33:55.865Z,2.87
2023-04-22T17:37:57.182Z,4.23
2023-04-22T17:41:58.446Z,3.10
2023-04-22T17:45:59.634Z,2.60
2023-04-22T17:50:00.833Z,2.70
2023-04-22T17:54:03.039Z,2.40
2023-04-22T17:58:05.066Z,2.80
2023-04-22T18:02:09.698Z,3.33
2023-04-22T18:06:11.020Z,2.53
2023-04-22T18:10:12.595Z,3.13
2023-04-22T18:14:13.910Z,3.70
2023-04-22T18:18:15.636Z,3.30
2023-04-22T18:22:18.531Z,3.10
2023-04-22T18:26:19.661Z,3.00
2023-04-22T18:30:22.551Z,2.70
2023-04-22T18:34:23.919Z,3.10
2023-04-22T18:38:26.414Z,2.50
2023-04-22T18:42:27.550Z,2.40
2023-04-22T18:46:28.884Z,2.40
2023-04-22T18:50:30.034Z,2.70
2023-04-22T18:54:31.194Z,2.77
2023-04-22T18:58:32.374Z,2.80
2023-04-22T19:02:37.283Z,3.20
2023-04-22T19:06:37.192Z,3.00
2023-04-22T19:10:38.302Z,3.30
2023-04-22T19:14:40.240Z,2.90
2023-04-22T19:18:43.364Z,3.10
2023-04-22T19:22:44.636Z,3.13
2023-04-22T19:26:46.797Z,3.80
2023-04-22T19:30:48.745Z,3.10
2023-04-22T19:34:50.252Z,3.00
2023-04-22T19:38:51.405Z,2.93
2023-04-22T19:42:52.775Z,4.00
2023-04-22T19:46:53.996Z,2.97
2023-04-22T19:50:55.417Z,3.17
2023-04-22T19:55:00.206Z,3.07
2023-04-22T19:59:01.470Z,3.57
2023-04-22T20:03:03.564Z,4.03
2023-04-22T20:07:06.274Z,3.10
2023-04-22T20:11:09.321Z,3.70
2023-04-22T20:15:11.266Z,3.50
2023-04-22T20:19:14.108Z,2.90
2023-04-22T20:23:18.868Z,3.60
2023-04-22T20:27:20.449Z,3.20
2023-04-22T20:31:23.380Z,3.70
2023-04-22T20:35:24.937Z,3.87
2023-04-22T20:39:27.191Z,4.20
2023-04-22T20:43:28.441Z,3.57
2023-04-22T20:47:29.637Z,3.53
2023-04-22T20:51:31.172Z,3.20
2023-04-22T20:55:33.337Z,3.90
2023-04-22T20:59:35.791Z,3.67
2023-04-22T21:03:39.109Z,3.90
2023-04-22T21:07:41.908Z,4.23
2023-04-22T21:11:43.388Z,4.23
2023-04-22T21:15:48.311Z,4.10
2023-04-22T21:19:50.287Z,4.27
2023-04-22T21:23:53.947Z,4.37
2023-04-22T21:27:55.614Z,3.90
2023-04-22T21:32:08.197Z,3.83
2023-04-22T21:36:00.126Z,4.93
2023-04-22T21:40:01.432Z,4.20
2023-04-22T21:44:02.847Z,4.17
2023-04-22T21:48:04.289Z,4.80
2023-04-22T21:52:05.741Z,4.40
2023-04-22T21:56:06.894Z,3.97
2023-04-22T22:00:11.125Z,3.80
2023-04-22T22:04:15.455Z,4.60
2023-04-22T22:08:15.732Z,4.73
2023-04-22T22:12:16.899Z,4.97
2023-04-22T22:16:18.289Z,5.47
2023-04-22T22:20:19.717Z,4.67
2023-04-22T22:24:20.952Z,5.37
2023-04-22T22:28:22.258Z,5.40
2023-04-22T22:32:23.402Z,5.90
2023-04-22T22:36:27.430Z,4.70
2023-04-22T22:40:28.610Z,5.77
2023-04-22T22:44:29.761Z,5.57
2023-04-22T22:48:30.995Z,5.27
2023-04-22T22:52:32.209Z,5.17
2023-04-22T22:56:33.375Z,4.80
2023-04-22T23:00:34.518Z,5.30
2023-04-22T23:04:36.823Z,4.50
2023-04-22T23:08:37.997Z,5.30
2023-04-22T23:12:39.081Z,5.00
2023-04-22T23:16:40.350Z,4.73
2023-04-22T23:20:43.124Z,5.13
2023-04-22T23:24:44.939Z,5.00
2023-04-22T23:28:46.456Z,4.83
2023-04-22T23:32:48.576Z,5.30
2023-04-22T23:36:49.974Z,6.50
2023-04-22T23:40:51.129Z,6.10
2023-04-22T23:44:52.284Z,5.73
2023-04-22T23:48:53.845Z,6.17
2023-04-22T23:52:55.223Z,7.37
2023-04-22T23:56:57.341Z,5.90
